Phil's Backyard

 Latitude S 29° 46' 26"    Longitude E 151° 07' 14"    Elevation 586 m

:now: :today: :yesterday: :daily data: :this month: :this year: :records: :monthly records:
:gauges: :graphs: :weatherzone: :forum: :dashboard: :webcam:


A Fire Weather Index for personal weather stations

(See below the table for background)
Legend:
Low (0-210)
Very High (490 - 630)

Moderate (210 - 350)
Extreme (630 - 800)

High (350 - 490)
Catastrophic (800+)


Flame  Flame
119.4
Date Temp. (°C) Wind Speed (km/h) Rain (mm) RH Days since Rain pwsFWI
Prediction is active (including today!), values are above red line.
21/05/22 19.0 15.0 0.0 0.54 5 179.9
20/05/22 18.0 14.0 0.0 0.49 4 165.0
19/05/22 19.0 13.0 0.0 0.50 3 174.7
18/05/22 19.0 12.0 0.0 0.53 2 173.6
17/05/22 21.0 13.0 0.0 0.42 1 119.4
16/05/22 23.8 11.0 0.2 0.62 0 109.4
15/05/22 25.2 8.0 0.0 0.68 1 131.5
14/05/22 25.7 16.0 0.2 0.62 0 151.8
13/05/22 23.9 16.0 0.4 0.70 0 147.2
12/05/22 18.3 14.0 66.4 0.81 0 150.3
11/05/22 18.0 24.0 8.4 0.72 0 167.6
10/05/22 20.2 21.0 0.0 0.54 1 147.6
09/05/22 22.3 13.0 0.2 0.46 0 100.9
08/05/22 22.8 8.0 0.0 0.20 2 96.4
07/05/22 18.6 13.0 0.0 0.50 1 103.8
06/05/22 18.9 8.0 0.2 0.66 0 113.4
05/05/22 20.9 8.0 19.6 0.83 0 103.7
04/05/22 25.1 10.0 4.4 0.43 0 144.7
03/05/22 24.9 8.0 0.0 0.38 2 167.6
02/05/22 25.3 11.0 0.0 0.38 1 135.4
01/05/22 26.2 6.0 0.2 0.35 0 113.1
30/04/22 25.2 23.0 1.8 0.58 0 175.5
29/04/22 27.8 6.0 0.0 0.44 2 194.1
28/04/22 25.9 13.0 0.0 0.55 1 204.0
27/04/22 20.9 10.0 1.8 0.67 0 212.6
26/04/22 20.0 11.0 0.0 0.56 2 248.2
25/04/22 22.3 18.0 0.0 0.40 1 256.5
24/04/22 23.3 16.0 0.2 0.48 0 165.6
23/04/22 23.8 13.0 0.0 0.53 3 143.8
22/04/22 24.2 14.0 0.0 0.52 2 143.9
21/04/22 26.6 10.0 0.0 0.40 1 125.2
20/04/22 22.9 11.0 0.2 0.48 0 146.9
19/04/22 26.1 11.0 5.6 0.45 0 172.1
18/04/22 26.4 6.0 0.0 0.45 1 199.6
17/04/22 24.9 10.0 0.2 0.41 0 226.8
16/04/22 25.3 6.0 0.0 0.41 2 236.0
15/04/22 25.6 8.0 0.0 0.38 1 253.2
14/04/22 25.7 11.0 0.2 0.40 0 278.4
13/04/22 24.4 14.0 0.0 0.53 7 293.1
12/04/22 27.8 11.0 0.0 0.38 6 286.1
11/04/22 27.8 11.0 0.0 0.46 5 234.3
10/04/22 28.1 10.0 0.0 0.46 4 215.5
09/04/22 27.2 16.0 0.0 0.49 3 173.6
08/04/22 25.9 16.0 0.0 0.52 2 113.8
07/04/22 24.8 13.0 0.0 0.58 1 116.4
06/04/22 27.5 13.0 4.0 0.53 0 149.7
05/04/22 27.6 8.0 0.2 0.55 0 179.5
04/04/22 25.8 13.0 2.2 0.63 0 218.2
03/04/22 25.6 27.0 18.4 0.48 0 183.7
02/04/22 24.7 14.0 0.0 0.37 4 157.0
01/04/22 24.7 13.0 0.0 0.43 3 101.3
31/03/22 26.6 16.0 0.0 0.53 2 54.3
30/03/22 25.9 18.0 0.0 0.59 1 50.2
29/03/22 18.3 8.0 22.6 0.87 0 1.5
28/03/22 23.6 11.0 3.6 0.63 0 95.0
27/03/22 24.5 11.0 22.8 0.68 0 154.2
26/03/22 23.5 14.0 32.6 0.66 0 231.4
25/03/22 19.8 19.0 36.4 0.79 0 315.5
24/03/22 27.6 18.0 15.2 0.50 0 403.1
23/03/22 32.1 13.0 0.4 0.33 0 434.8

Science background here. Prediction: https://www.yourweather.co.uk/
:now: :today: :yesterday: :daily data: :this month: :this year: :records: :monthly records:
:gauges: :graphs: :weatherzone: :forum: :dashboard: ::
:
fire index: :fwi graphs: :top10: :extremes: :sysinfo:


Page updated daily at 9:00 AM
powered by CumulusMX v3.1.2 (3055) Valid HTML | Valid CSS
this page by Hans Rottier from the Cumulus Forum

Cumulus Top Weather Sites